createdAt,value
2023-01-21T00:01:11.178Z,-0.56
2023-01-21T00:03:38.346Z,-0.55
2023-01-21T00:06:05.526Z,-0.56
2023-01-21T00:08:32.692Z,-0.56
2023-01-21T00:11:06.999Z,-0.58
2023-01-21T00:13:35.382Z,-0.57
2023-01-21T00:16:03.375Z,-0.58
2023-01-21T00:18:30.588Z,-0.60
2023-01-21T00:20:57.704Z,-0.62
2023-01-21T00:23:24.766Z,-0.64
2023-01-21T00:26:02.103Z,-0.66
2023-01-21T00:36:30.131Z,-0.64
2023-01-21T00:38:57.333Z,-0.65
2023-01-21T00:41:24.930Z,-0.66
2023-01-21T00:43:52.121Z,-0.68
2023-01-21T00:46:19.334Z,-0.69
2023-01-21T00:48:46.348Z,-0.70
2023-01-21T00:51:13.545Z,-0.70
2023-01-21T00:53:43.566Z,-0.72
2023-01-21T00:56:12.186Z,-0.75
2023-01-21T00:58:39.695Z,-0.76
2023-01-21T01:01:12.104Z,-0.77
2023-01-21T01:03:39.262Z,-0.79
2023-01-21T01:06:16.396Z,-0.80
2023-01-21T01:08:43.989Z,-0.81
2023-01-21T01:11:11.843Z,-0.81
2023-01-21T01:13:38.910Z,-0.83
2023-01-21T01:16:06.471Z,-0.84
2023-01-21T01:18:34.910Z,-0.86
2023-01-21T01:21:02.216Z,-0.88
2023-01-21T01:23:29.459Z,-0.90
2023-01-21T01:26:00.899Z,-0.90
2023-01-21T01:28:28.130Z,-0.91
2023-01-21T01:30:55.604Z,-0.92
2023-01-21T01:33:22.768Z,-0.92
2023-01-21T01:35:49.926Z,-0.93
2023-01-21T01:38:20.248Z,-0.93
2023-01-21T01:40:47.983Z,-0.94
2023-01-21T01:43:19.061Z,-0.96
2023-01-21T01:45:47.358Z,-0.96
2023-01-21T01:48:16.893Z,-0.96
2023-01-21T01:50:43.985Z,-0.96
2023-01-21T01:53:11.028Z,-0.97
2023-01-21T01:55:38.071Z,-0.99
2023-01-21T01:58:07.322Z,-1.00
2023-01-21T02:00:34.660Z,-1.01
2023-01-21T02:03:20.396Z,-1.03
2023-01-21T02:05:47.475Z,-1.05
2023-01-21T02:08:14.513Z,-1.06
2023-01-21T02:10:41.526Z,-1.08
2023-01-21T02:13:08.607Z,-1.10
2023-01-21T02:15:44.795Z,-1.11
2023-01-21T02:18:30.661Z,-1.12
2023-01-21T02:21:03.675Z,-1.13
2023-01-21T02:23:49.731Z,-1.13
2023-01-21T02:26:45.066Z,-1.15
2023-01-21T02:29:23.641Z,-1.17
2023-01-21T02:32:25.152Z,-1.18
2023-01-21T02:35:05.822Z,-1.20
2023-01-21T02:38:17.701Z,-1.22
2023-01-21T02:41:41.907Z,-1.24
2023-01-21T02:44:27.683Z,-1.25
2023-01-21T02:47:12.744Z,-1.26
2023-01-21T02:49:45.917Z,-1.28
2023-01-21T02:52:23.090Z,-1.29
2023-01-21T02:54:54.413Z,-1.30
2023-01-21T02:57:40.534Z,-1.31
2023-01-21T03:00:22.774Z,-1.32
2023-01-21T03:03:34.744Z,-1.32
2023-01-21T03:06:33.770Z,-1.32
2023-01-21T03:09:06.810Z,-1.31
2023-01-21T03:11:33.905Z,-1.31
2023-01-21T03:14:29.854Z,-1.32
2023-01-21T03:17:05.490Z,-1.33
2023-01-21T03:19:40.619Z,-1.33
2023-01-21T03:22:10.531Z,-1.32
2023-01-21T03:24:38.668Z,-1.32
2023-01-21T03:27:05.726Z,-1.31
2023-01-21T03:29:32.894Z,-1.30
2023-01-21T03:32:04.147Z,-1.28
2023-01-21T03:34:33.478Z,-1.25
2023-01-21T03:37:09.170Z,-1.23
2023-01-21T03:39:42.282Z,-1.22
2023-01-21T03:42:09.819Z,-1.21
2023-01-21T03:44:37.427Z,-1.20
2023-01-21T03:47:23.639Z,-1.18
2023-01-21T03:49:55.773Z,-1.16
2023-01-21T03:52:23.028Z,-1.15
2023-01-21T03:54:50.149Z,-1.14
2023-01-21T03:57:17.258Z,-1.12
2023-01-21T03:59:44.454Z,-1.12
2023-01-21T04:02:11.936Z,-1.11
2023-01-21T04:04:38.960Z,-1.11
2023-01-21T04:07:05.971Z,-1.10
2023-01-21T04:09:33.054Z,-1.10
2023-01-21T04:12:00.890Z,-1.10
2023-01-21T04:14:27.971Z,-1.10
2023-01-21T04:16:55.939Z,-1.10
2023-01-21T04:19:23.030Z,-1.10
2023-01-21T04:21:50.093Z,-1.10
2023-01-21T04:24:17.294Z,-1.11
2023-01-21T04:26:44.312Z,-1.11
2023-01-21T04:29:11.331Z,-1.11
2023-01-21T04:31:38.401Z,-1.11
2023-01-21T04:34:05.602Z,-1.11
2023-01-21T04:36:32.660Z,-1.11
2023-01-21T04:38:59.700Z,-1.11
2023-01-21T04:41:26.742Z,-1.10
2023-01-21T04:43:53.799Z,-1.09
2023-01-21T04:46:21.061Z,-1.08
2023-01-21T04:48:48.058Z,-1.08
2023-01-21T04:51:15.121Z,-1.07
2023-01-21T04:53:42.166Z,-1.06
2023-01-21T04:56:09.305Z,-1.07
2023-01-21T04:58:36.377Z,-1.06
2023-01-21T05:01:03.536Z,-1.06
2023-01-21T05:03:30.582Z,-1.06
2023-01-21T05:05:57.790Z,-1.06
2023-01-21T05:08:24.855Z,-1.06
2023-01-21T05:10:51.902Z,-1.06
2023-01-21T05:13:18.955Z,-1.05
2023-01-21T05:15:45.996Z,-1.04
2023-01-21T05:18:13.051Z,-1.04
2023-01-21T05:20:40.114Z,-1.03
2023-01-21T05:23:07.133Z,-1.02
2023-01-21T05:25:34.193Z,-1.02
2023-01-21T05:28:01.211Z,-1.01
2023-01-21T05:30:28.342Z,-1.01
2023-01-21T05:32:55.662Z,-1.00
2023-01-21T05:35:23.673Z,-1.00
2023-01-21T05:37:50.886Z,-1.01
2023-01-21T05:40:19.024Z,-1.00
2023-01-21T05:42:46.497Z,-0.99
2023-01-21T05:45:15.487Z,-0.98
2023-01-21T05:47:42.494Z,-0.97
2023-01-21T05:50:10.428Z,-0.96
2023-01-21T05:52:37.550Z,-0.95
2023-01-21T05:55:05.019Z,-0.94
2023-01-21T05:57:32.115Z,-0.93
2023-01-21T05:59:59.279Z,-0.92
2023-01-21T06:02:26.397Z,-0.90
2023-01-21T06:04:53.454Z,-0.89
2023-01-21T06:07:20.577Z,-0.87
2023-01-21T06:09:47.728Z,-0.86
2023-01-21T06:12:14.743Z,-0.85
2023-01-21T06:14:41.796Z,-0.83
2023-01-21T06:17:08.866Z,-0.82
2023-01-21T06:19:35.924Z,-0.80
2023-01-21T06:22:02.992Z,-0.78
2023-01-21T06:24:30.042Z,-0.77
2023-01-21T06:26:57.095Z,-0.75
2023-01-21T06:29:24.196Z,-0.75
2023-01-21T06:31:51.358Z,-0.74
2023-01-21T06:34:18.479Z,-0.73
2023-01-21T06:36:45.478Z,-0.71
2023-01-21T06:39:12.580Z,-0.71
2023-01-21T06:41:40.981Z,-0.70
2023-01-21T06:44:08.236Z,-0.70
2023-01-21T06:46:35.389Z,-0.71
2023-01-21T06:49:02.584Z,-0.70
2023-01-21T06:51:29.590Z,-0.70
2023-01-21T06:53:56.639Z,-0.69
2023-01-21T06:56:23.745Z,-0.67
2023-01-21T06:58:50.800Z,-0.66
2023-01-21T07:01:17.945Z,-0.65
2023-01-21T07:03:45.026Z,-0.63
2023-01-21T07:06:12.127Z,-0.62
2023-01-21T07:08:39.148Z,-0.60
2023-01-21T07:11:06.187Z,-0.58
2023-01-21T07:13:33.392Z,-0.57
2023-01-21T07:16:01.291Z,-0.56
2023-01-21T07:18:28.427Z,-0.55
2023-01-21T07:20:55.597Z,-0.54
2023-01-21T07:23:22.624Z,-0.53
2023-01-21T07:25:49.628Z,-0.52
2023-01-21T07:28:16.653Z,-0.52
2023-01-21T07:30:43.802Z,-0.51
2023-01-21T07:33:10.951Z,-0.47
2023-01-21T07:35:38.165Z,-0.44
2023-01-21T07:38:05.273Z,-0.41
2023-01-21T07:40:32.321Z,-0.37
2023-01-21T07:42:59.341Z,-0.33
2023-01-21T07:45:26.583Z,-0.27
2023-01-21T07:47:53.631Z,-0.21
2023-01-21T07:50:20.719Z,-0.15
2023-01-21T07:52:47.826Z,-0.10
2023-01-21T07:55:15.289Z,-0.06
2023-01-21T07:57:42.581Z,-0.02
2023-01-21T08:00:10.838Z,0.02
2023-01-21T08:02:40.839Z,0.05
2023-01-21T08:05:08.212Z,0.08
2023-01-21T08:07:35.362Z,0.11
2023-01-21T08:11:38.312Z,0.16
2023-01-21T08:14:05.977Z,0.17
2023-01-21T08:16:33.376Z,0.19
2023-01-21T08:19:00.577Z,0.21
2023-01-21T08:21:27.619Z,0.22
2023-01-21T08:23:54.787Z,0.23
2023-01-21T08:26:24.049Z,0.28
2023-01-21T08:28:55.669Z,0.33
2023-01-21T08:31:22.756Z,0.38
2023-01-21T08:33:49.901Z,0.43
2023-01-21T08:36:17.258Z,0.50
2023-01-21T08:38:44.415Z,0.61
2023-01-21T08:41:11.507Z,0.71
2023-01-21T08:43:40.708Z,0.80
2023-01-21T08:46:07.776Z,0.88
2023-01-21T08:48:34.915Z,0.99
2023-01-21T08:51:02.080Z,1.09
2023-01-21T08:53:29.235Z,1.15
2023-01-21T08:56:03.204Z,1.19
2023-01-21T08:58:30.589Z,1.21
2023-01-21T09:00:57.895Z,1.19
2023-01-21T09:03:24.956Z,1.16
2023-01-21T09:05:52.052Z,1.14
2023-01-21T09:08:19.391Z,1.10
2023-01-21T09:11:01.768Z,1.11
2023-01-21T09:13:38.528Z,1.12
2023-01-21T09:16:13.674Z,1.14
2023-01-21T09:18:41.109Z,1.16
2023-01-21T09:21:08.624Z,1.18
2023-01-21T09:23:36.149Z,1.19
2023-01-21T09:26:04.645Z,1.23
2023-01-21T09:28:33.390Z,1.25
2023-01-21T09:31:01.880Z,1.29
2023-01-21T09:33:29.679Z,1.31
2023-01-21T09:36:01.224Z,1.31
2023-01-21T09:38:28.677Z,1.34
2023-01-21T09:40:57.615Z,1.33
2023-01-21T09:43:28.828Z,1.32
2023-01-21T09:45:57.119Z,1.33
2023-01-21T09:48:33.345Z,1.36
2023-01-21T09:51:00.589Z,1.40
2023-01-21T09:53:32.703Z,1.46
2023-01-21T09:56:01.261Z,1.48
2023-01-21T09:58:37.920Z,1.53
2023-01-21T10:01:23.558Z,1.60
2023-01-21T10:03:56.806Z,1.71
2023-01-21T10:06:23.739Z,1.80
2023-01-21T10:08:56.799Z,1.86
2023-01-21T10:11:48.296Z,1.87
2023-01-21T10:14:21.394Z,1.92
2023-01-21T10:17:01.720Z,1.98
2023-01-21T10:19:35.901Z,2.07
2023-01-21T13:59:25.226Z,2.25
2023-01-21T14:06:08.378Z,2.34
2023-01-21T14:09:37.187Z,2.36
2023-01-21T14:12:16.835Z,2.40
2023-01-21T14:14:44.235Z,2.43
2023-01-21T14:17:39.038Z,2.45
2023-01-21T14:20:15.689Z,2.47
2023-01-21T14:22:46.024Z,2.48
2023-01-21T14:25:57.721Z,2.49
2023-01-21T14:28:28.432Z,2.49
2023-01-21T14:31:03.819Z,2.49
2023-01-21T14:33:43.908Z,2.48
2023-01-21T14:36:25.324Z,2.47
2023-01-21T14:39:30.241Z,2.44
2023-01-21T14:42:15.424Z,2.42
2023-01-21T14:44:44.715Z,2.39
2023-01-21T14:47:15.881Z,2.36
2023-01-21T14:49:45.225Z,2.35
2023-01-21T14:52:16.485Z,2.33
2023-01-21T14:54:44.964Z,2.31
2023-01-21T14:57:38.934Z,2.29
2023-01-21T15:00:53.353Z,2.28
2023-01-21T15:03:52.102Z,2.26
2023-01-21T15:06:23.408Z,2.24
2023-01-21T15:08:52.095Z,2.22
2023-01-21T15:11:21.437Z,2.21
2023-01-21T15:14:16.431Z,2.20
2023-01-21T15:17:59.463Z,2.18
2023-01-21T15:20:57.435Z,2.15
2023-01-21T15:23:30.563Z,2.12
2023-01-21T15:26:12.612Z,2.11
2023-01-21T15:28:45.801Z,2.08
2023-01-21T15:31:39.698Z,2.06
2023-01-21T15:34:14.118Z,2.04
2023-01-21T15:36:46.847Z,2.02
2023-01-21T15:39:30.785Z,1.99
2023-01-21T15:50:22.443Z,1.96
2023-01-21T15:53:14.553Z,1.92
2023-01-21T15:55:41.638Z,1.91
2023-01-21T15:58:46.570Z,1.89
2023-01-21T16:01:37.430Z,1.86
2023-01-21T16:04:20.270Z,1.82
2023-01-21T16:07:06.058Z,1.78
2023-01-21T16:10:05.549Z,1.76
2023-01-21T16:12:33.010Z,1.73
2023-01-21T16:15:30.603Z,1.70
2023-01-21T16:17:57.829Z,1.66
2023-01-21T16:20:24.978Z,1.62
2023-01-21T16:22:54.417Z,1.57
2023-01-21T16:25:47.639Z,1.51
2023-01-21T16:28:40.655Z,1.44
2023-01-21T16:31:07.821Z,1.36
2023-01-21T16:34:00.738Z,1.30
2023-01-21T16:36:27.848Z,1.24
2023-01-21T16:38:55.211Z,1.18
2023-01-21T16:41:59.176Z,1.12
2023-01-21T16:44:51.873Z,1.04
2023-01-21T16:47:35.370Z,0.95
2023-01-21T16:50:02.791Z,0.86
2023-01-21T16:52:30.666Z,0.75
2023-01-21T16:55:04.566Z,0.65
2023-01-21T16:57:32.026Z,0.55
2023-01-21T17:00:02.613Z,0.45
2023-01-21T17:05:29.981Z,0.23
2023-01-21T17:07:59.794Z,0.12
2023-01-21T17:11:05.648Z,0.01
2023-01-21T17:13:33.936Z,-0.10
2023-01-21T17:16:03.179Z,-0.19
2023-01-21T17:18:39.188Z,-0.26
2023-01-21T17:21:10.192Z,-0.31
2023-01-21T17:23:39.539Z,-0.36
2023-01-21T17:26:08.925Z,-0.38
2023-01-21T17:28:59.804Z,-0.41
2023-01-21T17:31:29.110Z,-0.44
2023-01-21T17:34:02.798Z,-0.46
2023-01-21T17:36:39.725Z,-0.51
2023-01-21T17:39:07.707Z,-0.55
2023-01-21T17:42:01.494Z,-0.58
2023-01-21T17:44:29.362Z,-0.61
2023-01-21T17:46:56.453Z,-0.64
2023-01-21T17:49:24.443Z,-0.66
2023-01-21T17:51:53.872Z,-0.68
2023-01-21T17:54:27.631Z,-0.70
2023-01-21T17:56:55.565Z,-0.72
2023-01-21T17:59:31.807Z,-0.75
2023-01-21T18:02:04.063Z,-0.77
2023-01-21T18:04:32.365Z,-0.78
2023-01-21T18:07:00.561Z,-0.80
2023-01-21T18:09:28.617Z,-0.83
2023-01-21T18:11:58.260Z,-0.86
2023-01-21T18:14:29.477Z,-0.87
2023-01-21T18:16:57.673Z,-0.88
2023-01-21T18:19:34.828Z,-0.90
2023-01-21T18:22:29.779Z,-0.93
2023-01-21T18:25:22.083Z,-0.94
2023-01-21T18:27:55.258Z,-0.99
2023-01-21T18:30:51.122Z,-1.03
2023-01-21T18:33:19.008Z,-1.06
2023-01-21T18:36:11.500Z,-1.08
2023-01-21T18:38:38.728Z,-1.09
2023-01-21T18:41:06.448Z,-1.09
2023-01-21T18:43:34.314Z,-1.07
2023-01-21T18:46:02.875Z,-1.05
2023-01-21T18:48:34.152Z,-1.03
2023-01-21T18:51:02.778Z,-1.01
2023-01-21T18:53:30.440Z,-0.98
2023-01-21T18:55:58.935Z,-0.96
2023-01-21T18:58:26.177Z,-0.94
2023-01-21T19:00:53.474Z,-0.91
2023-01-21T19:03:23.272Z,-0.91
2023-01-21T19:05:51.234Z,-0.89
2023-01-21T19:08:22.155Z,-0.88
2023-01-21T19:10:49.345Z,-0.88
2023-01-21T19:13:23.665Z,-0.87
2023-01-21T19:15:54.041Z,-0.86
2023-01-21T19:18:22.290Z,-0.86
2023-01-21T19:21:02.033Z,-0.86
2023-01-21T19:23:30.349Z,-0.86
2023-01-21T22:12:40.243Z,-1.73
2023-01-21T22:15:08.203Z,-1.68
2023-01-21T22:17:35.808Z,-1.62
2023-01-21T22:20:02.899Z,-1.59
2023-01-21T22:22:30.462Z,-1.55
2023-01-21T22:24:57.511Z,-1.52
2023-01-21T22:27:27.662Z,-1.49
2023-01-21T22:29:54.658Z,-1.46
2023-01-21T22:32:22.527Z,-1.43
2023-01-21T22:34:49.576Z,-1.40
2023-01-21T22:37:16.395Z,-1.39
2023-01-21T22:39:43.275Z,-1.38
2023-01-21T22:42:10.110Z,-1.37
2023-01-21T22:44:37.205Z,-1.36
2023-01-21T22:47:04.113Z,-1.36
2023-01-21T22:49:56.462Z,-1.34
2023-01-21T22:52:24.980Z,-1.29
2023-01-21T22:54:53.115Z,-1.29
2023-01-21T22:57:20.426Z,-1.28
2023-01-21T22:59:47.249Z,-1.26
2023-01-21T23:02:14.124Z,-1.25
2023-01-21T23:04:41.248Z,-1.24
2023-01-21T23:07:08.100Z,-1.25
2023-01-21T23:09:34.961Z,-1.24
2023-01-21T23:12:04.983Z,-1.25
2023-01-21T23:14:35.375Z,-1.25
2023-01-21T23:17:02.671Z,-1.24
2023-01-21T23:19:37.045Z,-1.25
2023-01-21T23:22:03.919Z,-1.27
2023-01-21T23:24:33.233Z,-1.26
2023-01-21T23:27:00.176Z,-1.27
2023-01-21T23:29:27.051Z,-1.28
2023-01-21T23:31:54.068Z,-1.27
2023-01-21T23:34:22.255Z,-1.26
2023-01-21T23:36:49.319Z,-1.27
2023-01-21T23:39:16.268Z,-1.28
2023-01-21T23:41:43.414Z,-1.29
2023-01-21T23:44:10.918Z,-1.31
2023-01-21T23:46:38.543Z,-1.31
2023-01-21T23:49:05.684Z,-1.30
2023-01-21T23:51:32.565Z,-1.30
2023-01-21T23:54:01.571Z,-1.30
2023-01-21T23:56:30.520Z,-1.28
2023-01-21T23:58:58.609Z,-1.27
